createdAt,value
2022-11-26T00:04:54.000Z,97449
2022-11-26T00:10:09.000Z,97452
2022-11-26T00:15:09.000Z,97461
2022-11-26T00:20:09.000Z,97472
2022-11-26T00:24:54.000Z,97477
2022-11-26T00:45:09.000Z,97487
2022-11-26T00:50:09.000Z,97483
2022-11-26T00:54:54.000Z,97484
2022-11-26T00:59:54.000Z,97490
2022-11-26T01:05:09.000Z,97487
2022-11-26T01:09:54.000Z,97511
2022-11-26T01:14:54.000Z,97513
2022-11-26T01:19:54.000Z,97514
2022-11-26T01:24:54.000Z,97516
2022-11-26T01:30:09.000Z,97530
2022-11-26T01:34:54.000Z,97549
2022-11-26T01:39:54.000Z,97555
2022-11-26T01:44:54.000Z,97542
2022-11-26T01:49:54.000Z,97545
2022-11-26T01:55:09.000Z,97570
2022-11-26T01:59:54.000Z,97584
2022-11-26T02:05:09.000Z,97579
2022-11-26T02:10:09.000Z,97589
2022-11-26T02:15:09.000Z,97603
2022-11-26T02:20:09.000Z,97602
2022-11-26T02:25:09.000Z,97612
2022-11-26T02:29:54.000Z,97617
2022-11-26T02:34:54.000Z,97631
2022-11-26T02:39:54.000Z,97629
2022-11-26T02:44:54.000Z,97634
2022-11-26T02:49:54.000Z,97640
2022-11-26T02:54:54.000Z,97638
2022-11-26T02:59:54.000Z,97643
2022-11-26T03:04:54.000Z,97637
2022-11-26T03:09:54.000Z,97645
2022-11-26T03:14:54.000Z,97653
2022-11-26T03:19:54.000Z,97656
2022-11-26T03:24:54.000Z,97656
2022-11-26T03:29:54.000Z,97648
2022-11-26T03:34:54.000Z,97636
2022-11-26T03:39:54.000Z,97627
2022-11-26T03:44:54.000Z,97631
2022-11-26T03:49:54.000Z,97639
2022-11-26T03:54:54.000Z,97632
2022-11-26T03:59:54.000Z,97638
2022-11-26T04:04:54.000Z,97618
2022-11-26T04:09:54.000Z,97634
2022-11-26T04:14:54.000Z,97630
2022-11-26T04:19:54.000Z,97626
2022-11-26T04:24:54.000Z,97630
2022-11-26T04:29:54.000Z,97650
2022-11-26T04:34:54.000Z,97630
2022-11-26T04:39:54.000Z,97629
2022-11-26T04:44:54.000Z,97642
2022-11-26T04:49:54.000Z,97656
2022-11-26T04:54:54.000Z,97650
2022-11-26T04:59:54.000Z,97653
2022-11-26T05:04:54.000Z,97645
2022-11-26T05:09:54.000Z,97629
2022-11-26T05:14:54.000Z,97630
2022-11-26T05:19:54.000Z,97645
2022-11-26T05:24:54.000Z,97661
2022-11-26T05:29:54.000Z,97648
2022-11-26T05:34:54.000Z,97658
2022-11-26T05:39:54.000Z,97672
2022-11-26T05:44:54.000Z,97671
2022-11-26T05:49:54.000Z,97685
2022-11-26T05:54:54.000Z,97689
2022-11-26T05:59:54.000Z,97682
2022-11-26T06:04:54.000Z,97686
2022-11-26T06:09:54.000Z,97694
2022-11-26T06:14:54.000Z,97697
2022-11-26T06:19:54.000Z,97699
2022-11-26T06:24:54.000Z,97708
2022-11-26T06:29:54.000Z,97712
2022-11-26T06:34:54.000Z,97713
2022-11-26T06:39:54.000Z,97706
2022-11-26T06:44:54.000Z,97708
2022-11-26T06:49:54.000Z,97720
2022-11-26T06:54:54.000Z,97742
2022-11-26T06:59:54.000Z,97750
2022-11-26T07:04:54.000Z,97749
2022-11-26T07:09:54.000Z,97750
2022-11-26T07:14:54.000Z,97743
2022-11-26T07:19:54.000Z,97749
2022-11-26T07:24:54.000Z,97755
2022-11-26T07:29:54.000Z,97766
2022-11-26T07:34:54.000Z,97770
2022-11-26T07:39:54.000Z,97774
2022-11-26T07:44:54.000Z,97793
2022-11-26T07:49:54.000Z,97794
2022-11-26T07:54:54.000Z,97793
2022-11-26T07:59:54.000Z,97798
2022-11-26T08:04:54.000Z,97801
2022-11-26T08:09:54.000Z,97788
2022-11-26T08:14:54.000Z,97780
2022-11-26T08:19:54.000Z,97788
2022-11-26T08:24:54.000Z,97791
2022-11-26T08:29:54.000Z,97802
2022-11-26T08:34:54.000Z,97790
2022-11-26T08:39:54.000Z,97786
2022-11-26T08:44:54.000Z,97784
2022-11-26T08:49:54.000Z,97794
2022-11-26T08:54:54.000Z,97799
2022-11-26T08:59:54.000Z,97808
2022-11-26T09:04:54.000Z,97810
2022-11-26T09:09:54.000Z,97813
2022-11-26T09:14:54.000Z,97795
2022-11-26T09:19:54.000Z,97798
2022-11-26T09:24:54.000Z,97801
2022-11-26T09:29:54.000Z,97815
2022-11-26T09:34:54.000Z,97825
2022-11-26T09:39:54.000Z,97827
2022-11-26T09:44:54.000Z,97831
2022-11-26T09:49:54.000Z,97822
2022-11-26T09:54:54.000Z,97824
2022-11-26T09:59:54.000Z,97824
2022-11-26T10:04:54.000Z,97835
2022-11-26T10:09:54.000Z,97831
2022-11-26T10:14:54.000Z,97823
2022-11-26T10:19:54.000Z,97808
2022-11-26T10:24:54.000Z,97809
2022-11-26T10:29:54.000Z,97806
2022-11-26T10:34:54.000Z,97800
2022-11-26T10:39:54.000Z,97802
2022-11-26T10:44:54.000Z,97805
2022-11-26T10:49:54.000Z,97796
2022-11-26T10:54:54.000Z,97799
2022-11-26T11:00:09.000Z,97792
2022-11-26T11:04:54.000Z,97779
2022-11-26T11:09:54.000Z,97769
2022-11-26T11:14:54.000Z,97761
2022-11-26T11:19:54.000Z,97763
2022-11-26T11:25:09.000Z,97760
2022-11-26T11:29:54.000Z,97757
2022-11-26T11:35:09.000Z,97750
2022-11-26T11:39:54.000Z,97751
2022-11-26T11:44:54.000Z,97743
2022-11-26T11:49:54.000Z,97751
2022-11-26T11:54:54.000Z,97741
2022-11-26T12:00:09.000Z,97737
2022-11-26T12:04:54.000Z,97728
2022-11-26T12:09:54.000Z,97722
2022-11-26T12:14:54.000Z,97714
2022-11-26T12:19:54.000Z,97715
2022-11-26T12:24:54.000Z,97722
2022-11-26T12:29:54.000Z,97729
2022-11-26T12:34:54.000Z,97716
2022-11-26T12:39:54.000Z,97726
2022-11-26T12:44:54.000Z,97723
2022-11-26T12:49:54.000Z,97729
2022-11-26T12:54:54.000Z,97731
2022-11-26T12:59:54.000Z,97735
2022-11-26T13:04:54.000Z,97740
2022-11-26T13:09:54.000Z,97735
2022-11-26T13:14:54.000Z,97718
2022-11-26T13:19:54.000Z,97715
2022-11-26T13:24:54.000Z,97711
2022-11-26T13:29:54.000Z,97702
2022-11-26T13:34:54.000Z,97696
2022-11-26T13:39:54.000Z,97701
2022-11-26T13:44:54.000Z,97696
2022-11-26T13:49:54.000Z,97694
2022-11-26T13:54:54.000Z,97689
2022-11-26T13:59:54.000Z,97687
2022-11-26T14:04:54.000Z,97676
2022-11-26T14:09:54.000Z,97674
2022-11-26T14:14:54.000Z,97678
2022-11-26T14:19:54.000Z,97672
2022-11-26T14:24:54.000Z,97683
2022-11-26T14:29:54.000Z,97683
2022-11-26T14:34:54.000Z,97676
2022-11-26T14:40:09.000Z,97669
2022-11-26T14:44:54.000Z,97653
2022-11-26T14:49:54.000Z,97659
2022-11-26T14:54:54.000Z,97669
2022-11-26T14:59:54.000Z,97679
2022-11-26T15:04:54.000Z,97674
2022-11-26T15:09:54.000Z,97676
2022-11-26T15:14:54.000Z,97668
2022-11-26T15:19:54.000Z,97678
2022-11-26T15:24:54.000Z,97670
2022-11-26T15:29:54.000Z,97653
2022-11-26T15:34:54.000Z,97658
2022-11-26T15:39:54.000Z,97662
2022-11-26T15:44:54.000Z,97659
2022-11-26T15:49:54.000Z,97657
2022-11-26T15:54:54.000Z,97654
2022-11-26T15:59:54.000Z,97646
2022-11-26T16:04:54.000Z,97638
2022-11-26T16:09:54.000Z,97625
2022-11-26T16:14:54.000Z,97638
2022-11-26T16:19:54.000Z,97637
2022-11-26T16:24:54.000Z,97641
2022-11-26T16:29:54.000Z,97647
2022-11-26T16:34:54.000Z,97647
2022-11-26T16:39:54.000Z,97646
2022-11-26T16:44:54.000Z,97645
2022-11-26T16:49:54.000Z,97639
2022-11-26T16:54:54.000Z,97654
2022-11-26T17:00:09.000Z,97653
2022-11-26T17:04:54.000Z,97656
2022-11-26T17:09:54.000Z,97657
2022-11-26T17:14:54.000Z,97656
2022-11-26T17:19:54.000Z,97631
2022-11-26T17:24:54.000Z,97626
2022-11-26T17:29:54.000Z,97636
2022-11-26T17:34:54.000Z,97636
2022-11-26T17:39:54.000Z,97652
2022-11-26T17:44:54.000Z,97660
2022-11-26T17:49:54.000Z,97652
2022-11-26T17:54:54.000Z,97643
2022-11-26T17:59:54.000Z,97642
2022-11-26T18:04:54.000Z,97645
2022-11-26T18:09:54.000Z,97655
2022-11-26T18:14:54.000Z,97656
2022-11-26T18:19:54.000Z,97657
2022-11-26T18:24:54.000Z,97660
2022-11-26T18:29:54.000Z,97659
2022-11-26T18:34:54.000Z,97666
2022-11-26T18:39:54.000Z,97677
2022-11-26T18:44:54.000Z,97678
2022-11-26T18:49:54.000Z,97678
2022-11-26T18:54:54.000Z,97668
2022-11-26T18:59:54.000Z,97671
2022-11-26T19:04:54.000Z,97669
2022-11-26T19:09:54.000Z,97671
2022-11-26T19:14:54.000Z,97666
2022-11-26T19:19:54.000Z,97647
2022-11-26T19:24:54.000Z,97645
2022-11-26T19:29:54.000Z,97670
2022-11-26T19:34:54.000Z,97658
2022-11-26T19:39:54.000Z,97648
2022-11-26T19:44:54.000Z,97648
2022-11-26T19:49:54.000Z,97632
2022-11-26T19:54:54.000Z,97641
2022-11-26T19:59:54.000Z,97638
2022-11-26T20:04:54.000Z,97639
2022-11-26T20:09:54.000Z,97645
2022-11-26T20:14:54.000Z,97653
2022-11-26T20:19:54.000Z,97650
2022-11-26T20:24:54.000Z,97635
2022-11-26T20:29:54.000Z,97637
2022-11-26T20:34:54.000Z,97639
2022-11-26T20:39:54.000Z,97650
2022-11-26T20:44:54.000Z,97636
2022-11-26T20:49:54.000Z,97628
2022-11-26T20:54:54.000Z,97635
2022-11-26T20:59:54.000Z,97632
2022-11-26T21:04:55.000Z,97626
2022-11-26T21:09:55.000Z,97620
2022-11-26T21:14:55.000Z,97620
2022-11-26T21:19:55.000Z,97608
2022-11-26T21:24:55.000Z,97604
2022-11-26T21:29:55.000Z,97606
2022-11-26T21:34:55.000Z,97604
2022-11-26T21:39:55.000Z,97588
2022-11-26T21:44:55.000Z,97591
2022-11-26T21:49:55.000Z,97604
2022-11-26T21:54:55.000Z,97603
2022-11-26T21:59:55.000Z,97605
2022-11-26T22:04:55.000Z,97616
2022-11-26T22:09:55.000Z,97620
2022-11-26T22:14:55.000Z,97629
2022-11-26T22:19:55.000Z,97638
2022-11-26T22:24:55.000Z,97646
2022-11-26T22:29:55.000Z,97637
2022-11-26T22:34:55.000Z,97636
2022-11-26T22:39:55.000Z,97644
2022-11-26T22:44:55.000Z,97652
2022-11-26T22:49:55.000Z,97644
2022-11-26T22:54:55.000Z,97649
2022-11-26T22:59:55.000Z,97652
2022-11-26T23:04:55.000Z,97642
2022-11-26T23:09:55.000Z,97640
2022-11-26T23:14:55.000Z,97652
2022-11-26T23:19:55.000Z,97650
2022-11-26T23:24:55.000Z,97640
2022-11-26T23:29:55.000Z,97632
2022-11-26T23:34:55.000Z,97639
2022-11-26T23:39:55.000Z,97632
2022-11-26T23:44:55.000Z,97629
2022-11-26T23:49:55.000Z,97615
2022-11-26T23:54:55.000Z,97609
2022-11-26T23:59:55.000Z,97609
